Latest Coastal Weather Observations for Geraldton Airport

IDW60701

Issued at 2:42 pm WST Tuesday 31 March 2015 (issued every 10 minutes, with the page automatically refreshed every 10 minutes)

About coastal observations | Map of coastal stations | Coastal observations for WA | Marine services | Other Formats
Station Details ID: 008315 Name: GERALDTON AIRPORT Lat: -28.80 Lon: 114.70 Height: 29.7 m
Data from the previous 72 hours. | See also: Recent months at Geraldton Airport
Date/Time
WST
Temp

°C
Wind Pressure Rain
since 9am
mm
Weather Cloud Vis
km
Sea
Height
m
Swell
Dir
 
Speed
knots
Gust
knots
hPa Trend Height
m
Period
s
Dir
31/02:30pm 23.8 S 13 18 1016.7 - 0.0 - Mostly clear 10 - - - -
31/02:00pm 23.7 S 14 19 1016.7 - 0.0 - Mostly clear 10 - - - -
31/01:30pm 23.8 S 15 19 1016.7 - 0.0 - Mostly clear 10 - - - -
31/01:00pm 24.6 S 13 17 1017.0 - 0.0 - Mostly clear 10 - - - -
31/12:30pm 23.7 S 13 17 1017.1 - 0.0 - Mostly clear 10 - - - -
31/12:00pm 23.5 S 14 17 1017.3 R 0.0 Distant precip. Mostly cloudy 30 - - - -
31/11:30am 23.8 SSE 12 15 1017.6 - 0.0 - Partly cloudy 10 - - - -
31/11:00am 23.0 SSE 10 13 1018.0 - 0.0 - Mostly clear 10 - - - -
31/10:30am 22.1 SSE 9 11 1018.1 - 0.0 - Mostly clear 10 - - - -
31/10:00am 21.9 SSE 8 10 1018.0 - 0.0 - Mostly clear 10 - - - -
31/09:00am 20.1 SSE 3 5 1018.1 R 14.8 Recent precip. Mostly cloudy 25 - - - -
31/08:30am 19.7 SSW 2 5 1017.8 - 14.8 Rain Mostly clear 10 - - - -
31/08:00am 19.5 SSE 4 5 1017.6 - 14.4 Rain Mostly clear 10 - - - -
31/07:30am 19.6 S 2 5 1017.4 - 13.6 Rain Mostly clear 10 - - - -
31/07:00am 19.5 CALM 0 0 1017.0 - 13.2 Rain Mostly clear 8 - - - -
31/06:30am 19.3 ESE 4 5 1016.9 - 12.6 Rain Mostly clear 10 - - - -
31/06:00am 19.4 E 4 5 1016.6 R 11.0 Rain Mostly cloudy 9 - - - -
31/05:31am 19.5 E 5 6 1016.3 - 9.0 - Partly cloudy 10 - - - -
31/05:30am 19.5 E 5 6 1016.3 - 8.8 - Partly cloudy 10 - - - -
31/05:04am 19.4 SE 5 6 1016.1 - 7.0 - Partly cloudy 8 - - - -
31/05:00am 19.4 SE 5 7 1016.1 - 6.6 - Partly cloudy 10 - - - -
31/04:53am 19.3 SE 7 9 1015.9 - 6.2 - Partly cloudy 10 - - - -
31/04:37am 19.1 SSE 8 9 1015.8 - 5.2 - Partly cloudy 8 - - - -
31/04:30am 19.1 SSE 8 11 1015.8 - 4.2 - Partly cloudy 10 - - - -
31/04:23am 19.3 SSE 8 11 1015.8 - 3.6 - Partly cloudy 10 - - - -
31/04:04am 19.7 SSE 6 8 1015.6 - 1.8 - Partly cloudy 8 - - - -
31/04:00am 19.9 SSE 6 7 1015.5 - 1.2 - Partly cloudy 10 - - - -
31/03:30am 20.0 SE 5 6 1015.4 - 0.8 - Cloudy 10 - - - -
31/03:00am 19.9 SE 5 5 1015.3 - 0.8 - Mostly clear 10 - - - -
31/02:30am 19.9 ESE 4 5 1015.3 - 0.8 - Partly cloudy 10 - - - -
31/02:00am 20.0 SE 5 5 1015.4 - 0.8 - Partly cloudy 10 - - - -
31/01:30am 20.1 SSE 4 5 1015.3 - 0.8 - Cloudy 10 - - - -
31/01:00am 20.0 S 2 4 1015.9 - 0.8 - Partly cloudy 10 - - - -
31/12:30am 20.2 SSE 4 5 1016.1 - 0.8 - Partly cloudy 10 - - - -
31/12:00am 20.4 SSE 6 6 1016.0 - 0.8 - Mostly cloudy 10 - - - -
 
Date/Time
WST
Temp

°C
Wind Pressure Rain
since 9am
mm
Weather Cloud Vis
km
Sea
Height
m
Swell
Dir
 
Speed
knots
Gust
knots
hPa Trend Height
m
Period
s
Dir
30/11:30pm 20.5 SSE 6 7 1016.3 - 0.8 - Cloudy 10 - - - -
30/11:00pm 20.7 SSE 4 5 1016.7 - 0.8 - Partly cloudy 10 - - - -
30/10:30pm 20.9 SSE 5 5 1017.0 - 0.8 - Partly cloudy 10 - - - -
30/10:00pm 21.0 ESE 3 4 1017.2 - 0.8 - Partly cloudy 10 - - - -
30/09:30pm 21.0 ESE 3 4 1017.4 - 0.8 - Partly cloudy 10 - - - -
30/09:00pm 21.0 SSE 4 5 1017.5 - 0.8 - Cloudy 10 - - - -
30/08:30pm 21.1 SSE 3 4 1017.5 - 0.8 - Cloudy 10 - - - -
30/08:00pm 21.0 ESE 5 6 1017.1 - 0.8 - Partly cloudy 10 - - - -
30/07:30pm 21.3 SSE 4 5 1016.7 - 0.8 - Partly cloudy 10 - - - -
30/07:00pm 21.4 S 6 7 1016.3 - 0.8 - Partly cloudy 10 - - - -
30/06:30pm 21.6 S 4 5 1016.2 - 0.8 - - 10 - - - -
30/06:00pm 21.9 SW 3 4 1016.2 - 0.8 - - 10 - - - -
30/05:30pm 22.2 SSE 3 4 1016.2 - 0.8 Rain Mostly clear 10 - - - -
30/05:00pm 22.4 SE 5 6 1016.2 - 0.8 Rain Mostly clear 10 - - - -
30/04:30pm 22.8 S 4 5 1016.4 - 0.8 Rain Mostly clear 10 - - - -
30/04:00pm 22.9 S 4 5 1016.5 - 0.8 Rain Partly cloudy 10 - - - -
30/03:30pm 22.8 S 4 5 1016.2 - 0.8 Rain Mostly clear 10 - - - -
30/03:00pm 22.7 SW 4 6 1016.0 R 0.8 Rain Cloudy 25 - - - -
30/02:30pm 22.7 WSW 4 5 1015.7 - 0.8 Rain Mostly clear 10 - - - -
30/02:00pm 22.2 NNE 4 6 1015.7 - 0.8 Rain Mostly clear 10 - - - -
30/01:30pm 21.7 N 7 8 1016.1 - 0.6 Rain Mostly clear 10 - - - -
30/01:00pm 22.0 N 8 9 1016.5 - 0.2 Rain Mostly clear 10 - - - -
30/12:30pm 23.2 NNW 8 11 1016.8 - 0.0 Rain Mostly clear 10 - - - -
30/12:00pm 23.8 NNW 10 11 1017.0 R 0.0 Rain Cloudy 25 - - - -
30/11:30am 24.0 NNW 10 13 1017.3 - 0.0 Rain Mostly clear 10 - - - -
30/11:00am 23.8 NNW 8 11 1017.5 - 0.0 - - 10 - - - -
30/10:30am 23.6 NNW 8 9 1017.6 - 0.0 - - 10 - - - -
30/10:00am 23.0 NNW 7 9 1017.7 - 0.0 - Mostly clear 10 - - - -
30/09:30am 22.1 NNW 5 7 1017.8 - 0.0 - Mostly clear 10 - - - -
30/09:00am 21.4 N 4 5 1017.5 R 0.0 Fine Mostly cloudy 25 - - - -
30/08:30am 20.6 N 11 15 1017.8 - 0.0 - Mostly clear 10 - - - -
30/08:07am 18.4 NNE 16 26 1017.5 - 0.0 - Partly cloudy 10 - - - -
30/08:00am 18.4 NNW 2 5 1016.6 - 0.0 - Partly cloudy 10 - - - -
30/07:30am 17.6 CALM 0 0 1016.1 - 0.0 - - 10 - - - -
30/07:00am 16.6 NW 1 3 1015.8 - 0.0 - - 10 - - - -
30/06:30am 16.4 N 3 4 1015.5 - 0.0 - - 10 - - - -
30/06:00am 16.4 N 5 6 1015.2 R 0.0 Fine Mostly cloudy 30 - - - -
30/05:30am 16.2 N 5 7 1014.8 - 0.0 - - 10 - - - -
30/05:00am 16.1 NNE 4 7 1014.6 - 0.0 - - 10 - - - -
30/04:30am 15.6 E 3 5 1014.1 - 0.0 - - 10 - - - -
30/04:00am 15.7 ENE 3 4 1014.2 - 0.0 - - 10 - - - -
30/03:30am 15.8 CALM 0 0 1014.3 - 0.0 - - 10 - - - -
30/03:00am 16.7 N 5 7 1014.4 - 0.0 - - 10 - - - -
30/02:30am 17.0 NNE 7 8 1014.6 - 0.0 - - 10 - - - -
30/02:04am 16.0 E 4 5 1014.5 - 0.0 - - 10 - - - -
30/02:00am 16.1 E 4 5 1014.4 - 0.0 - - 10 - - - -
30/01:41am 16.6 ENE 2 4 1014.7 - 0.0 - - 8 - - - -
30/01:30am 16.7 CALM 0 0 1014.8 - 0.0 - - 10 - - - -
30/01:00am 16.2 NE 4 5 1015.1 - 0.0 - - 10 - - - -
30/12:30am 17.2 NE 3 4 1015.4 - 0.0 - - 10 - - - -
30/12:00am 17.6 E 3 5 1015.4 - 0.0 - - 10 - - - -
 
Date/Time
WST
Temp

°C
Wind Pressure Rain
since 9am
mm
Weather Cloud Vis
km
Sea
Height
m
Swell
Dir
 
Speed
knots
Gust
knots
hPa Trend Height
m
Period
s
Dir
29/11:30pm 18.5 CALM 0 3 1015.7 - 0.0 - - 10 - - - -
29/11:00pm 19.0 NNW 2 5 1016.0 - 0.0 - - 10 - - - -
29/10:30pm 18.8 CALM 0 2 1016.3 - 0.0 - - 10 - - - -
29/10:00pm 19.5 SE 4 5 1016.4 - 0.0 - - 10 - - - -
29/09:30pm 20.0 SSE 5 6 1016.7 - 0.0 - - 10 - - - -
29/09:00pm 20.3 SSE 6 7 1016.6 - 0.0 - - 10 - - - -
29/08:30pm 20.8 SSE 5 6 1016.5 - 0.0 - - 10 - - - -
29/08:00pm 21.6 SSE 7 9 1016.3 - 0.0 - - 10 - - - -
29/07:30pm 22.2 SSE 9 12 1016.2 - 0.0 - - 10 - - - -
29/07:00pm 22.5 SSE 10 11 1016.1 - 0.0 - - 10 - - - -
29/06:30pm 23.2 S 11 13 1016.1 - 0.0 - - 10 - - - -
29/06:00pm 24.2 S 12 14 1015.9 - 0.0 - - 10 - - - -
29/05:30pm 25.4 S 12 15 1015.8 - 0.0 - - 10 - - - -
29/05:00pm 26.6 S 12 14 1015.7 - 0.0 - - 10 - - - -
29/04:30pm 26.9 S 12 15 1015.5 - 0.0 - - 10 - - - -
29/04:00pm 27.3 SSW 11 13 1015.4 - 0.0 - - 10 - - - -
29/03:30pm 27.7 SW 13 15 1015.5 - 0.0 - - 10 - - - -
29/03:00pm 28.5 SW 12 15 1015.5 R 0.0 Fine Partly cloudy 30 - - - -
29/02:30pm 28.7 SW 13 16 1015.5 - 0.0 - - 10 - - - -
29/02:00pm 30.0 SW 13 18 1015.5 - 0.0 - - 10 - - - -
29/01:30pm 29.7 SW 13 16 1015.7 - 0.0 - - 10 - - - -
29/01:00pm 30.5 WSW 11 14 1015.9 - 0.0 - - 10 - - - -
29/12:30pm 29.8 SW 8 11 1016.2 - 0.0 - - 10 - - - -
29/12:00pm 29.9 SW 10 12 1016.8 F 0.0 Fine Partly cloudy 30 - - - -
29/11:30am 29.7 WSW 4 5 1017.4 - 0.0 - - 10 - - - -
29/11:00am 28.6 WNW 5 7 1017.9 - 0.0 - - 10 - - - -
29/10:30am 27.6 W 3 4 1018.3 - 0.0 - - 10 - - - -
29/10:00am 26.4 SSE 4 6 1018.4 - 0.0 - - 10 - - - -
29/09:30am 24.5 SE 6 9 1018.6 - 0.0 - - 10 - - - -
29/09:00am 22.4 ESE 5 7 1018.7 F 0.0 Fine Mostly clear 30 - - - -
29/08:30am 20.6 SE 6 8 1018.6 - 0.0 - - 10 - - - -
29/08:00am 18.7 ESE 5 6 1018.8 - 0.0 - - 10 - - - -
29/07:30am 16.8 SE 5 6 1018.5 - 0.0 - - 10 - - - -
29/07:00am 15.1 ESE 6 7 1018.4 - 0.0 - - 10 - - - -
29/06:30am 14.2 SE 7 8 1018.2 - 0.0 - - 10 - - - -
29/06:00am 13.7 SE 6 7 1018.0 F 0.0 Fine Mostly clear 30 - - - -
29/05:30am 13.4 SE 6 7 1017.9 - 0.0 - - 10 - - - -
29/05:00am 13.9 SE 5 6 1017.9 - 0.0 - - 10 - - - -
29/04:30am 14.3 ESE 3 4 1017.7 - 0.0 - - 10 - - - -
29/04:00am 14.6 SSE 7 7 1017.6 - 0.0 - - 10 - - - -
29/03:30am 15.3 SE 7 8 1017.6 - 0.0 - - 10 - - - -
29/03:00am 15.8 SE 8 9 1017.6 - 0.0 - - 10 - - - -
29/02:30am 16.0 SE 8 10 1017.9 - 0.0 - - 10 - - - -
29/02:00am 16.0 SE 8 9 1018.0 - 0.0 - - 10 - - - -
29/01:30am 16.5 SE 8 11 1018.2 - 0.0 - - 10 - - - -
29/01:00am 16.8 SSE 8 10 1018.5 - 0.0 - - 10 - - - -
29/12:30am 17.5 SSE 12 14 1018.7 - 0.0 - - 10 - - - -
29/12:00am 18.0 SSE 11 13 1018.8 - 0.0 - - 10 - - - -
 
Date/Time
WST
Temp

°C
Wind Pressure Rain
since 9am
mm
Weather Cloud Vis
km
Sea
Height
m
Swell
Dir
 
Speed
knots
Gust
knots
hPa Trend Height
m
Period
s
Dir
28/11:30pm 18.5 SSE 11 13 1019.0 - 0.0 - - 10 - - - -
28/11:00pm 18.8 SSE 9 13 1019.5 - 0.0 - - 10 - - - -
28/10:30pm 19.4 SSE 12 15 1019.2 - 0.0 - - 10 - - - -
28/10:00pm 19.6 SSE 11 14 1019.4 - 0.0 - - 10 - - - -
28/09:30pm 20.5 SSE 13 18 1019.6 - 0.0 - - 10 - - - -
28/09:00pm 20.8 SSE 12 17 1019.3 - 0.0 - - 10 - - - -
28/08:30pm 21.0 SSE 12 16 1019.1 - 0.0 - - 10 - - - -
28/08:00pm 21.2 S 12 16 1018.8 - 0.0 - - 10 - - - -
28/07:30pm 21.4 S 12 16 1018.4 - 0.0 - - 10 - - - -
28/07:00pm 21.6 S 15 19 1017.7 - 0.0 - - 10 - - - -
28/06:30pm 22.0 S 14 19 1017.3 - 0.0 - - 10 - - - -
28/06:00pm 22.6 S 17 21 1017.1 - 0.0 - - 10 - - - -
28/05:30pm 23.2 S 17 21 1017.2 - 0.0 - - 10 - - - -
28/05:00pm 24.1 S 16 20 1017.0 - 0.0 - - 10 - - - -
28/04:30pm 24.8 S 17 22 1017.0 - 0.0 - - 10 - - - -
28/04:00pm 25.8 S 17 22 1017.0 - 0.0 - - 10 - - - -
28/03:30pm 25.9 S 19 23 1017.0 - 0.0 - - 10 - - - -
28/03:00pm 26.7 S 19 24 1017.1 F 0.0 Fine Mostly clear 30 - - - -

Other Formats:

Comma delimited format used in spreadsheet applications
http://www.bom.gov.au/fwo/IDW60701/IDW60701.94403.axf

JavaScript Object Notation format (JSON) in row-major order
http://www.bom.gov.au/fwo/IDW60701/IDW60701.94403.json